Whitehouse, Ohio
Current Conditions -  °F | °C
As of 5:52 PM on Wednesday 17 Dec 2014 (Local Time) from KTOL Reporting Station
Overcast Overcast  
Wind Chill: 18°   Ceiling: 2500
Heat Index: 29°   Visibility: 10mi
Dew Point: 20°   Wind: 15mph
Humidity: 69%   Direction: 290°WNW
Pressure: 30.15"   Gusts: 24mph
Location:  41.52°N, 83.8°W
Report Text: KTOL 172252Z AUTO 29013G21KT 10SM OVC025 M02/M07 A3015 RMK AO2 SLP217 T10171067
Loading
Personal Weather Stations






























Interactive Weather Map New forecast layout! Learn more

10-Day Weather Forecast

Advertisements
Track Severe Weather on mobile